sensor_id;sensor_type;location;lat;lon;timestamp;P1;durP1;ratioP1;P2;durP2;ratioP2
68076;SDS011;54866;53.458;14.540;2023-03-20T00:02:25;28.80;;;23.70;;
68076;SDS011;54866;53.458;14.540;2023-03-20T00:04:55;30.50;;;25.00;;
68076;SDS011;54866;53.458;14.540;2023-03-20T00:07:24;28.30;;;24.10;;
68076;SDS011;54866;53.458;14.540;2023-03-20T00:09:54;25.00;;;20.30;;
68076;SDS011;54866;53.458;14.540;2023-03-20T00:12:24;23.90;;;19.30;;
68076;SDS011;54866;53.458;14.540;2023-03-20T00:14:53;25.80;;;21.70;;
68076;SDS011;54866;53.458;14.540;2023-03-20T00:17:23;29.60;;;23.50;;
68076;SDS011;54866;53.458;14.540;2023-03-20T00:19:53;25.70;;;20.70;;
68076;SDS011;54866;53.458;14.540;2023-03-20T00:22:22;26.60;;;22.20;;
68076;SDS011;54866;53.458;14.540;2023-03-20T00:24:54;25.40;;;21.90;;
68076;SDS011;54866;53.458;14.540;2023-03-20T00:27:24;24.80;;;22.10;;
68076;SDS011;54866;53.458;14.540;2023-03-20T00:29:53;24.50;;;20.20;;
68076;SDS011;54866;53.458;14.540;2023-03-20T00:32:23;26.10;;;20.10;;
68076;SDS011;54866;53.458;14.540;2023-03-20T00:34:53;22.10;;;18.10;;
68076;SDS011;54866;53.458;14.540;2023-03-20T00:37:22;24.80;;;22.20;;
68076;SDS011;54866;53.458;14.540;2023-03-20T00:39:53;22.70;;;20.30;;
68076;SDS011;54866;53.458;14.540;2023-03-20T00:42:23;27.00;;;22.50;;
68076;SDS011;54866;53.458;14.540;2023-03-20T00:44:53;30.10;;;24.30;;
68076;SDS011;54866;53.458;14.540;2023-03-20T00:47:25;26.70;;;21.70;;
68076;SDS011;54866;53.458;14.540;2023-03-20T00:49:55;27.10;;;21.70;;
68076;SDS011;54866;53.458;14.540;2023-03-20T00:52:26;25.40;;;21.90;;
68076;SDS011;54866;53.458;14.540;2023-03-20T00:54:55;25.80;;;21.00;;
68076;SDS011;54866;53.458;14.540;2023-03-20T00:57:25;25.80;;;21.40;;
68076;SDS011;54866;53.458;14.540;2023-03-20T00:59:58;23.40;;;20.80;;
68076;SDS011;54866;53.458;14.540;2023-03-20T01:02:31;26.10;;;21.00;;
68076;SDS011;54866;53.458;14.540;2023-03-20T01:05:01;23.80;;;20.50;;
68076;SDS011;54866;53.458;14.540;2023-03-20T01:07:32;20.90;;;18.10;;
68076;SDS011;54866;53.458;14.540;2023-03-20T01:10:02;22.90;;;19.80;;
68076;SDS011;54866;53.458;14.540;2023-03-20T01:12:32;26.00;;;20.60;;
68076;SDS011;54866;53.458;14.540;2023-03-20T01:15:02;24.70;;;20.10;;
68076;SDS011;54866;53.458;14.540;2023-03-20T01:17:37;22.80;;;19.40;;
68076;SDS011;54866;53.458;14.540;2023-03-20T01:20:09;24.90;;;21.10;;
68076;SDS011;54866;53.458;14.540;2023-03-20T01:22:44;25.60;;;22.50;;
68076;SDS011;54866;53.458;14.540;2023-03-20T01:25:13;25.40;;;22.50;;
68076;SDS011;54866;53.458;14.540;2023-03-20T01:27:45;24.20;;;21.50;;
68076;SDS011;54866;53.458;14.540;2023-03-20T01:30:18;26.30;;;22.60;;
68076;SDS011;54866;53.458;14.540;2023-03-20T01:32:51;25.10;;;21.70;;
68076;SDS011;54866;53.458;14.540;2023-03-20T01:35:21;25.80;;;21.00;;
68076;SDS011;54866;53.458;14.540;2023-03-20T01:37:53;24.50;;;21.60;;
68076;SDS011;54866;53.458;14.540;2023-03-20T01:40:31;23.90;;;20.70;;
68076;SDS011;54866;53.458;14.540;2023-03-20T01:43:07;24.50;;;20.10;;
68076;SDS011;54866;53.458;14.540;2023-03-20T01:45:44;24.40;;;20.40;;
68076;SDS011;54866;53.458;14.540;2023-03-20T01:48:22;24.80;;;20.90;;
68076;SDS011;54866;53.458;14.540;2023-03-20T01:50:53;27.00;;;21.10;;
68076;SDS011;54866;53.458;14.540;2023-03-20T01:53:23;25.40;;;20.70;;
68076;SDS011;54866;53.458;14.540;2023-03-20T01:55:56;23.00;;;20.50;;
68076;SDS011;54866;53.458;14.540;2023-03-20T01:58:28;25.00;;;21.40;;
68076;SDS011;54866;53.458;14.540;2023-03-20T02:01:02;28.40;;;21.00;;
68076;SDS011;54866;53.458;14.540;2023-03-20T02:03:35;24.70;;;21.10;;
68076;SDS011;54866;53.458;14.540;2023-03-20T02:06:05;24.10;;;20.90;;
68076;SDS011;54866;53.458;14.540;2023-03-20T02:08:36;21.20;;;18.90;;
68076;SDS011;54866;53.458;14.540;2023-03-20T02:11:11;22.30;;;19.90;;
68076;SDS011;54866;53.458;14.540;2023-03-20T02:13:42;22.10;;;19.70;;
68076;SDS011;54866;53.458;14.540;2023-03-20T02:16:13;24.00;;;21.30;;
68076;SDS011;54866;53.458;14.540;2023-03-20T02:18:45;28.90;;;22.60;;
68076;SDS011;54866;53.458;14.540;2023-03-20T02:21:39;43.90;;;21.50;;
68076;SDS011;54866;53.458;14.540;2023-03-20T02:27:43;56.20;;;23.60;;
68076;SDS011;54866;53.458;14.540;2023-03-20T02:30:33;47.70;;;21.60;;
68076;SDS011;54866;53.458;14.540;2023-03-20T02:33:34;41.00;;;22.80;;
68076;SDS011;54866;53.458;14.540;2023-03-20T02:36:27;40.60;;;18.80;;
68076;SDS011;54866;53.458;14.540;2023-03-20T02:42:13;29.40;;;20.80;;
68076;SDS011;54866;53.458;14.540;2023-03-20T02:44:50;24.70;;;18.10;;
68076;SDS011;54866;53.458;14.540;2023-03-20T02:47:27;38.40;;;21.20;;
68076;SDS011;54866;53.458;14.540;2023-03-20T02:50:06;27.10;;;19.30;;
68076;SDS011;54866;53.458;14.540;2023-03-20T02:52:45;37.40;;;19.80;;
68076;SDS011;54866;53.458;14.540;2023-03-20T02:55:19;32.60;;;19.50;;
68076;SDS011;54866;53.458;14.540;2023-03-20T02:57:55;34.70;;;18.80;;
68076;SDS011;54866;53.458;14.540;2023-03-20T03:00:31;29.20;;;19.30;;
68076;SDS011;54866;53.458;14.540;2023-03-20T03:03:05;28.70;;;19.00;;
68076;SDS011;54866;53.458;14.540;2023-03-20T03:05:41;27.00;;;18.80;;
68076;SDS011;54866;53.458;14.540;2023-03-20T03:08:16;20.70;;;17.90;;
68076;SDS011;54866;53.458;14.540;2023-03-20T03:10:48;21.00;;;17.40;;
68076;SDS011;54866;53.458;14.540;2023-03-20T03:13:24;22.30;;;18.90;;
68076;SDS011;54866;53.458;14.540;2023-03-20T03:15:58;19.70;;;16.70;;
68076;SDS011;54866;53.458;14.540;2023-03-20T03:18:32;17.60;;;15.30;;
68076;SDS011;54866;53.458;14.540;2023-03-20T03:21:05;18.40;;;15.70;;
68076;SDS011;54866;53.458;14.540;2023-03-20T03:23:41;19.10;;;16.90;;
68076;SDS011;54866;53.458;14.540;2023-03-20T03:26:14;20.10;;;16.20;;
68076;SDS011;54866;53.458;14.540;2023-03-20T03:28:48;20.20;;;15.10;;
68076;SDS011;54866;53.458;14.540;2023-03-20T03:31:22;19.40;;;17.30;;
68076;SDS011;54866;53.458;14.540;2023-03-20T03:33:53;20.00;;;16.70;;
68076;SDS011;54866;53.458;14.540;2023-03-20T03:36:28;20.10;;;17.20;;
68076;SDS011;54866;53.458;14.540;2023-03-20T03:39:08;17.40;;;14.40;;
68076;SDS011;54866;53.458;14.540;2023-03-20T03:41:48;19.10;;;16.60;;
68076;SDS011;54866;53.458;14.540;2023-03-20T03:44:25;19.30;;;16.70;;
68076;SDS011;54866;53.458;14.540;2023-03-20T03:47:00;21.60;;;16.10;;
68076;SDS011;54866;53.458;14.540;2023-03-20T03:49:34;19.00;;;17.00;;
68076;SDS011;54866;53.458;14.540;2023-03-20T03:52:08;20.30;;;16.90;;
68076;SDS011;54866;53.458;14.540;2023-03-20T03:54:41;19.00;;;16.40;;
68076;SDS011;54866;53.458;14.540;2023-03-20T03:57:14;21.50;;;16.80;;
68076;SDS011;54866;53.458;14.540;2023-03-20T03:59:49;20.10;;;17.20;;
68076;SDS011;54866;53.458;14.540;2023-03-20T04:02:21;20.40;;;17.70;;
68076;SDS011;54866;53.458;14.540;2023-03-20T04:04:51;21.50;;;17.90;;
68076;SDS011;54866;53.458;14.540;2023-03-20T04:07:23;20.10;;;17.70;;
68076;SDS011;54866;53.458;14.540;2023-03-20T04:09:54;21.10;;;17.30;;
68076;SDS011;54866;53.458;14.540;2023-03-20T04:12:35;21.10;;;18.00;;
68076;SDS011;54866;53.458;14.540;2023-03-20T04:15:06;19.80;;;17.10;;
68076;SDS011;54866;53.458;14.540;2023-03-20T04:17:36;19.90;;;17.60;;
68076;SDS011;54866;53.458;14.540;2023-03-20T04:20:07;24.00;;;18.30;;
68076;SDS011;54866;53.458;14.540;2023-03-20T04:22:38;21.60;;;18.60;;
68076;SDS011;54866;53.458;14.540;2023-03-20T04:25:13;22.40;;;17.60;;
68076;SDS011;54866;53.458;14.540;2023-03-20T04:27:44;21.60;;;17.20;;
68076;SDS011;54866;53.458;14.540;2023-03-20T04:30:14;24.70;;;18.60;;
68076;SDS011;54866;53.458;14.540;2023-03-20T04:32:45;22.20;;;18.50;;
68076;SDS011;54866;53.458;14.540;2023-03-20T04:35:15;22.60;;;18.40;;
68076;SDS011;54866;53.458;14.540;2023-03-20T04:37:45;23.80;;;18.90;;
68076;SDS011;54866;53.458;14.540;2023-03-20T04:40:14;22.70;;;18.00;;
68076;SDS011;54866;53.458;14.540;2023-03-20T04:42:44;20.00;;;17.30;;
68076;SDS011;54866;53.458;14.540;2023-03-20T04:45:14;22.20;;;17.10;;
68076;SDS011;54866;53.458;14.540;2023-03-20T04:47:43;20.60;;;16.70;;
68076;SDS011;54866;53.458;14.540;2023-03-20T04:50:13;21.50;;;17.60;;
68076;SDS011;54866;53.458;14.540;2023-03-20T04:52:43;23.90;;;19.70;;
68076;SDS011;54866;53.458;14.540;2023-03-20T04:55:13;23.60;;;19.30;;
68076;SDS011;54866;53.458;14.540;2023-03-20T04:57:42;26.40;;;19.90;;
68076;SDS011;54866;53.458;14.540;2023-03-20T05:00:13;24.50;;;18.50;;
68076;SDS011;54866;53.458;14.540;2023-03-20T05:02:44;24.70;;;19.60;;
68076;SDS011;54866;53.458;14.540;2023-03-20T05:05:13;23.00;;;18.60;;
68076;SDS011;54866;53.458;14.540;2023-03-20T05:07:43;25.70;;;20.90;;
68076;SDS011;54866;53.458;14.540;2023-03-20T05:10:13;28.20;;;20.70;;
68076;SDS011;54866;53.458;14.540;2023-03-20T05:12:42;23.60;;;19.60;;
68076;SDS011;54866;53.458;14.540;2023-03-20T05:15:12;26.20;;;19.60;;
68076;SDS011;54866;53.458;14.540;2023-03-20T05:17:41;25.00;;;18.70;;
68076;SDS011;54866;53.458;14.540;2023-03-20T05:20:11;28.10;;;20.20;;
68076;SDS011;54866;53.458;14.540;2023-03-20T05:22:41;26.40;;;20.20;;
68076;SDS011;54866;53.458;14.540;2023-03-20T05:25:11;27.80;;;21.60;;
68076;SDS011;54866;53.458;14.540;2023-03-20T05:27:40;27.90;;;20.30;;
68076;SDS011;54866;53.458;14.540;2023-03-20T05:30:12;29.60;;;20.40;;
68076;SDS011;54866;53.458;14.540;2023-03-20T05:32:42;23.50;;;18.30;;
68076;SDS011;54866;53.458;14.540;2023-03-20T05:35:11;26.90;;;20.80;;
68076;SDS011;54866;53.458;14.540;2023-03-20T05:37:41;25.00;;;18.70;;
68076;SDS011;54866;53.458;14.540;2023-03-20T05:40:12;30.60;;;20.70;;
68076;SDS011;54866;53.458;14.540;2023-03-20T05:45:12;27.30;;;18.40;;
68076;SDS011;54866;53.458;14.540;2023-03-20T05:47:42;22.30;;;18.20;;
68076;SDS011;54866;53.458;14.540;2023-03-20T05:50:12;22.70;;;17.40;;
68076;SDS011;54866;53.458;14.540;2023-03-20T05:52:42;25.70;;;18.80;;
68076;SDS011;54866;53.458;14.540;2023-03-20T05:55:15;23.20;;;18.50;;
68076;SDS011;54866;53.458;14.540;2023-03-20T05:57:45;27.30;;;18.20;;
68076;SDS011;54866;53.458;14.540;2023-03-20T06:00:15;26.10;;;18.40;;
68076;SDS011;54866;53.458;14.540;2023-03-20T06:02:46;27.20;;;19.20;;
68076;SDS011;54866;53.458;14.540;2023-03-20T06:05:16;28.50;;;19.80;;
68076;SDS011;54866;53.458;14.540;2023-03-20T06:07:45;30.50;;;20.20;;
68076;SDS011;54866;53.458;14.540;2023-03-20T06:10:15;37.90;;;19.60;;
68076;SDS011;54866;53.458;14.540;2023-03-20T06:12:46;34.80;;;20.40;;
68076;SDS011;54866;53.458;14.540;2023-03-20T06:15:16;100.60;;;27.10;;
68076;SDS011;54866;53.458;14.540;2023-03-20T06:17:45;50.80;;;16.20;;
68076;SDS011;54866;53.458;14.540;2023-03-20T06:20:15;48.10;;;17.70;;
68076;SDS011;54866;53.458;14.540;2023-03-20T06:22:45;57.30;;;21.30;;
68076;SDS011;54866;53.458;14.540;2023-03-20T06:25:15;66.00;;;18.30;;
68076;SDS011;54866;53.458;14.540;2023-03-20T06:27:46;45.10;;;17.20;;
68076;SDS011;54866;53.458;14.540;2023-03-20T06:30:16;48.40;;;17.00;;
68076;SDS011;54866;53.458;14.540;2023-03-20T06:32:46;24.10;;;12.50;;
68076;SDS011;54866;53.458;14.540;2023-03-20T06:35:16;36.30;;;16.40;;
68076;SDS011;54866;53.458;14.540;2023-03-20T06:37:46;31.30;;;16.10;;
68076;SDS011;54866;53.458;14.540;2023-03-20T06:40:16;17.80;;;11.60;;
68076;SDS011;54866;53.458;14.540;2023-03-20T06:42:47;28.30;;;13.20;;
68076;SDS011;54866;53.458;14.540;2023-03-20T06:45:16;30.40;;;14.20;;
68076;SDS011;54866;53.458;14.540;2023-03-20T06:47:47;29.50;;;14.90;;
68076;SDS011;54866;53.458;14.540;2023-03-20T06:50:16;28.80;;;15.10;;
68076;SDS011;54866;53.458;14.540;2023-03-20T06:52:46;27.30;;;13.80;;
68076;SDS011;54866;53.458;14.540;2023-03-20T06:55:16;26.30;;;14.40;;
68076;SDS011;54866;53.458;14.540;2023-03-20T06:57:46;32.40;;;15.00;;
68076;SDS011;54866;53.458;14.540;2023-03-20T07:00:17;35.70;;;14.50;;
68076;SDS011;54866;53.458;14.540;2023-03-20T07:02:47;35.50;;;13.40;;
68076;SDS011;54866;53.458;14.540;2023-03-20T07:05:18;23.40;;;13.70;;
68076;SDS011;54866;53.458;14.540;2023-03-20T07:07:48;24.10;;;16.20;;
68076;SDS011;54866;53.458;14.540;2023-03-20T07:10:18;26.50;;;14.20;;
68076;SDS011;54866;53.458;14.540;2023-03-20T07:12:49;31.10;;;15.20;;
68076;SDS011;54866;53.458;14.540;2023-03-20T07:15:19;23.30;;;14.90;;
68076;SDS011;54866;53.458;14.540;2023-03-20T07:17:49;24.20;;;14.60;;
68076;SDS011;54866;53.458;14.540;2023-03-20T07:20:18;33.10;;;15.50;;
68076;SDS011;54866;53.458;14.540;2023-03-20T07:22:48;22.60;;;14.30;;
68076;SDS011;54866;53.458;14.540;2023-03-20T07:25:18;21.70;;;15.50;;
68076;SDS011;54866;53.458;14.540;2023-03-20T07:27:49;29.20;;;16.50;;
68076;SDS011;54866;53.458;14.540;2023-03-20T07:30:19;24.90;;;14.80;;
68076;SDS011;54866;53.458;14.540;2023-03-20T07:32:48;22.20;;;14.70;;
68076;SDS011;54866;53.458;14.540;2023-03-20T07:35:18;23.30;;;15.60;;
68076;SDS011;54866;53.458;14.540;2023-03-20T07:37:47;36.90;;;15.00;;
68076;SDS011;54866;53.458;14.540;2023-03-20T07:40:17;40.90;;;15.80;;
68076;SDS011;54866;53.458;14.540;2023-03-20T07:42:47;31.10;;;16.20;;
68076;SDS011;54866;53.458;14.540;2023-03-20T07:45:17;29.20;;;14.00;;
68076;SDS011;54866;53.458;14.540;2023-03-20T07:47:47;41.50;;;15.70;;
68076;SDS011;54866;53.458;14.540;2023-03-20T07:50:17;27.80;;;15.50;;
68076;SDS011;54866;53.458;14.540;2023-03-20T07:52:47;36.70;;;16.10;;
68076;SDS011;54866;53.458;14.540;2023-03-20T07:55:17;39.80;;;17.30;;
68076;SDS011;54866;53.458;14.540;2023-03-20T07:57:48;42.50;;;18.20;;
68076;SDS011;54866;53.458;14.540;2023-03-20T08:00:18;49.00;;;19.60;;
68076;SDS011;54866;53.458;14.540;2023-03-20T08:02:48;25.30;;;15.80;;
68076;SDS011;54866;53.458;14.540;2023-03-20T08:05:18;33.10;;;16.70;;
68076;SDS011;54866;53.458;14.540;2023-03-20T08:07:47;30.20;;;17.30;;
68076;SDS011;54866;53.458;14.540;2023-03-20T08:10:17;34.60;;;18.80;;
68076;SDS011;54866;53.458;14.540;2023-03-20T08:12:47;43.90;;;19.70;;
68076;SDS011;54866;53.458;14.540;2023-03-20T08:15:17;33.60;;;17.60;;
68076;SDS011;54866;53.458;14.540;2023-03-20T08:17:46;25.50;;;16.90;;
68076;SDS011;54866;53.458;14.540;2023-03-20T08:20:16;31.00;;;18.10;;
68076;SDS011;54866;53.458;14.540;2023-03-20T08:22:47;26.90;;;17.00;;
68076;SDS011;54866;53.458;14.540;2023-03-20T08:25:17;30.40;;;19.20;;
68076;SDS011;54866;53.458;14.540;2023-03-20T08:27:46;31.00;;;20.00;;
68076;SDS011;54866;53.458;14.540;2023-03-20T08:30:16;33.80;;;19.60;;
68076;SDS011;54866;53.458;14.540;2023-03-20T08:32:46;35.70;;;22.50;;
68076;SDS011;54866;53.458;14.540;2023-03-20T08:35:16;34.00;;;21.40;;
68076;SDS011;54866;53.458;14.540;2023-03-20T08:37:45;32.10;;;20.20;;
68076;SDS011;54866;53.458;14.540;2023-03-20T08:40:15;32.00;;;19.60;;
68076;SDS011;54866;53.458;14.540;2023-03-20T08:42:45;30.70;;;20.40;;
68076;SDS011;54866;53.458;14.540;2023-03-20T08:45:14;33.60;;;18.90;;
68076;SDS011;54866;53.458;14.540;2023-03-20T08:47:45;34.50;;;20.90;;
68076;SDS011;54866;53.458;14.540;2023-03-20T08:50:16;35.60;;;19.10;;
68076;SDS011;54866;53.458;14.540;2023-03-20T08:52:45;30.80;;;18.00;;
68076;SDS011;54866;53.458;14.540;2023-03-20T08:55:15;29.60;;;18.70;;
68076;SDS011;54866;53.458;14.540;2023-03-20T08:57:45;30.60;;;17.90;;
68076;SDS011;54866;53.458;14.540;2023-03-20T09:00:15;31.20;;;17.80;;
68076;SDS011;54866;53.458;14.540;2023-03-20T09:02:46;30.50;;;17.10;;
68076;SDS011;54866;53.458;14.540;2023-03-20T09:05:16;32.20;;;17.80;;
68076;SDS011;54866;53.458;14.540;2023-03-20T09:07:45;26.00;;;15.60;;
68076;SDS011;54866;53.458;14.540;2023-03-20T09:10:17;23.70;;;14.80;;
68076;SDS011;54866;53.458;14.540;2023-03-20T09:12:46;21.80;;;15.50;;
68076;SDS011;54866;53.458;14.540;2023-03-20T09:15:16;24.60;;;14.10;;
68076;SDS011;54866;53.458;14.540;2023-03-20T09:17:46;23.50;;;15.60;;
68076;SDS011;54866;53.458;14.540;2023-03-20T09:20:16;23.20;;;17.10;;
68076;SDS011;54866;53.458;14.540;2023-03-20T09:22:45;23.10;;;14.90;;
68076;SDS011;54866;53.458;14.540;2023-03-20T09:25:15;20.10;;;13.40;;
68076;SDS011;54866;53.458;14.540;2023-03-20T17:18:32;5.50;;;3.40;;
68076;SDS011;54866;53.458;14.540;2023-03-20T17:21:03;6.20;;;3.70;;
68076;SDS011;54866;53.458;14.540;2023-03-20T17:23:34;6.80;;;4.40;;
68076;SDS011;54866;53.458;14.540;2023-03-20T17:26:04;6.80;;;4.80;;
68076;SDS011;54866;53.458;14.540;2023-03-20T17:28:37;8.70;;;4.20;;
68076;SDS011;54866;53.458;14.540;2023-03-20T17:31:09;6.90;;;4.50;;
68076;SDS011;54866;53.458;14.540;2023-03-20T17:33:42;6.70;;;3.90;;
68076;SDS011;54866;53.458;14.540;2023-03-20T17:36:14;6.70;;;4.00;;
68076;SDS011;54866;53.458;14.540;2023-03-20T17:38:46;6.50;;;3.80;;
68076;SDS011;54866;53.458;14.540;2023-03-20T17:41:16;7.30;;;4.60;;
68076;SDS011;54866;53.458;14.540;2023-03-20T17:43:48;8.30;;;4.50;;
68076;SDS011;54866;53.458;14.540;2023-03-20T17:46:18;7.20;;;3.70;;
68076;SDS011;54866;53.458;14.540;2023-03-20T17:48:51;8.70;;;4.30;;
68076;SDS011;54866;53.458;14.540;2023-03-20T17:51:25;9.70;;;5.50;;
68076;SDS011;54866;53.458;14.540;2023-03-20T17:53:55;8.60;;;5.80;;
68076;SDS011;54866;53.458;14.540;2023-03-20T17:56:26;6.80;;;4.90;;
68076;SDS011;54866;53.458;14.540;2023-03-20T17:58:58;9.30;;;5.10;;
68076;SDS011;54866;53.458;14.540;2023-03-20T18:01:29;7.20;;;5.00;;
68076;SDS011;54866;53.458;14.540;2023-03-20T18:03:59;9.40;;;5.80;;
68076;SDS011;54866;53.458;14.540;2023-03-20T18:06:29;7.90;;;5.50;;
68076;SDS011;54866;53.458;14.540;2023-03-20T18:09:00;8.50;;;5.60;;
68076;SDS011;54866;53.458;14.540;2023-03-20T18:11:30;8.20;;;5.60;;
68076;SDS011;54866;53.458;14.540;2023-03-20T18:14:00;9.90;;;6.70;;
68076;SDS011;54866;53.458;14.540;2023-03-20T18:16:29;9.60;;;5.80;;
68076;SDS011;54866;53.458;14.540;2023-03-20T18:18:59;12.70;;;7.20;;
68076;SDS011;54866;53.458;14.540;2023-03-20T18:21:30;11.20;;;6.70;;
68076;SDS011;54866;53.458;14.540;2023-03-20T18:23:59;11.10;;;6.20;;
68076;SDS011;54866;53.458;14.540;2023-03-20T18:26:29;11.00;;;6.20;;
68076;SDS011;54866;53.458;14.540;2023-03-20T18:28:59;9.60;;;6.00;;
68076;SDS011;54866;53.458;14.540;2023-03-20T18:31:29;10.50;;;6.70;;
68076;SDS011;54866;53.458;14.540;2023-03-20T18:33:59;9.70;;;5.80;;
68076;SDS011;54866;53.458;14.540;2023-03-20T18:36:28;10.00;;;5.80;;
68076;SDS011;54866;53.458;14.540;2023-03-20T18:38:59;14.80;;;6.20;;
68076;SDS011;54866;53.458;14.540;2023-03-20T18:41:29;9.00;;;6.10;;
68076;SDS011;54866;53.458;14.540;2023-03-20T18:44:00;10.90;;;7.00;;
68076;SDS011;54866;53.458;14.540;2023-03-20T18:46:30;10.60;;;6.90;;
68076;SDS011;54866;53.458;14.540;2023-03-20T18:49:00;8.80;;;7.00;;
68076;SDS011;54866;53.458;14.540;2023-03-20T18:51:30;11.60;;;6.80;;
68076;SDS011;54866;53.458;14.540;2023-03-20T18:54:00;10.40;;;7.10;;
68076;SDS011;54866;53.458;14.540;2023-03-20T18:56:30;8.70;;;5.80;;
68076;SDS011;54866;53.458;14.540;2023-03-20T18:59:03;10.50;;;6.80;;
68076;SDS011;54866;53.458;14.540;2023-03-20T19:01:34;11.30;;;7.10;;
68076;SDS011;54866;53.458;14.540;2023-03-20T19:04:03;11.70;;;7.30;;
68076;SDS011;54866;53.458;14.540;2023-03-20T19:06:33;10.00;;;6.00;;
68076;SDS011;54866;53.458;14.540;2023-03-20T19:09:03;10.70;;;6.00;;
68076;SDS011;54866;53.458;14.540;2023-03-20T19:11:36;11.50;;;6.80;;
68076;SDS011;54866;53.458;14.540;2023-03-20T19:14:07;12.20;;;7.80;;
68076;SDS011;54866;53.458;14.540;2023-03-20T19:16:37;8.90;;;7.50;;
68076;SDS011;54866;53.458;14.540;2023-03-20T19:19:07;10.80;;;7.00;;
68076;SDS011;54866;53.458;14.540;2023-03-20T19:21:38;14.50;;;7.80;;
68076;SDS011;54866;53.458;14.540;2023-03-20T19:24:09;10.70;;;6.30;;
68076;SDS011;54866;53.458;14.540;2023-03-20T19:26:39;10.20;;;6.30;;
68076;SDS011;54866;53.458;14.540;2023-03-20T19:29:10;11.00;;;7.00;;
68076;SDS011;54866;53.458;14.540;2023-03-20T19:31:40;11.20;;;6.90;;
68076;SDS011;54866;53.458;14.540;2023-03-20T19:34:10;10.20;;;6.80;;
68076;SDS011;54866;53.458;14.540;2023-03-20T19:36:40;10.20;;;5.90;;
68076;SDS011;54866;53.458;14.540;2023-03-20T19:39:14;15.60;;;7.00;;
68076;SDS011;54866;53.458;14.540;2023-03-20T19:41:45;15.10;;;7.70;;
68076;SDS011;54866;53.458;14.540;2023-03-20T19:44:16;11.80;;;7.20;;
68076;SDS011;54866;53.458;14.540;2023-03-20T19:46:46;11.60;;;6.90;;
68076;SDS011;54866;53.458;14.540;2023-03-20T19:49:17;9.70;;;7.00;;
68076;SDS011;54866;53.458;14.540;2023-03-20T19:51:48;12.90;;;8.80;;
68076;SDS011;54866;53.458;14.540;2023-03-20T19:54:18;12.20;;;8.20;;
68076;SDS011;54866;53.458;14.540;2023-03-20T19:56:51;12.60;;;8.70;;
68076;SDS011;54866;53.458;14.540;2023-03-20T19:59:21;13.40;;;8.00;;
68076;SDS011;54866;53.458;14.540;2023-03-20T20:01:51;12.90;;;8.10;;
68076;SDS011;54866;53.458;14.540;2023-03-20T20:04:24;11.70;;;8.10;;
68076;SDS011;54866;53.458;14.540;2023-03-20T20:06:54;14.80;;;8.30;;
68076;SDS011;54866;53.458;14.540;2023-03-20T20:09:24;11.80;;;8.90;;
68076;SDS011;54866;53.458;14.540;2023-03-20T20:11:55;13.30;;;7.70;;
68076;SDS011;54866;53.458;14.540;2023-03-20T20:14:25;13.10;;;8.10;;
68076;SDS011;54866;53.458;14.540;2023-03-20T20:16:55;13.40;;;8.00;;
68076;SDS011;54866;53.458;14.540;2023-03-20T20:19:24;11.80;;;7.60;;
68076;SDS011;54866;53.458;14.540;2023-03-20T20:21:55;12.50;;;8.00;;
68076;SDS011;54866;53.458;14.540;2023-03-20T20:24:25;11.60;;;7.70;;
68076;SDS011;54866;53.458;14.540;2023-03-20T20:26:55;10.20;;;7.20;;
68076;SDS011;54866;53.458;14.540;2023-03-20T20:29:25;12.60;;;8.20;;
68076;SDS011;54866;53.458;14.540;2023-03-20T20:31:55;11.30;;;7.20;;
68076;SDS011;54866;53.458;14.540;2023-03-20T20:34:26;10.80;;;8.00;;
68076;SDS011;54866;53.458;14.540;2023-03-20T20:36:57;13.60;;;7.80;;
68076;SDS011;54866;53.458;14.540;2023-03-20T20:39:27;15.00;;;8.80;;
68076;SDS011;54866;53.458;14.540;2023-03-20T20:41:56;14.40;;;9.30;;
68076;SDS011;54866;53.458;14.540;2023-03-20T20:44:26;14.40;;;9.00;;
68076;SDS011;54866;53.458;14.540;2023-03-20T20:46:57;12.70;;;8.50;;
68076;SDS011;54866;53.458;14.540;2023-03-20T20:49:27;14.10;;;8.80;;
68076;SDS011;54866;53.458;14.540;2023-03-20T20:51:59;11.70;;;8.30;;
68076;SDS011;54866;53.458;14.540;2023-03-20T20:54:29;10.40;;;7.20;;
68076;SDS011;54866;53.458;14.540;2023-03-20T20:57:00;10.70;;;7.90;;
68076;SDS011;54866;53.458;14.540;2023-03-20T20:59:32;13.00;;;8.30;;
68076;SDS011;54866;53.458;14.540;2023-03-20T21:02:03;10.80;;;7.00;;
68076;SDS011;54866;53.458;14.540;2023-03-20T21:07:08;15.40;;;8.40;;
68076;SDS011;54866;53.458;14.540;2023-03-20T21:09:39;11.20;;;7.70;;
68076;SDS011;54866;53.458;14.540;2023-03-20T21:12:09;15.40;;;7.80;;
68076;SDS011;54866;53.458;14.540;2023-03-20T21:14:41;15.60;;;8.30;;
68076;SDS011;54866;53.458;14.540;2023-03-20T21:17:12;11.70;;;8.20;;
68076;SDS011;54866;53.458;14.540;2023-03-20T21:19:42;16.40;;;9.20;;
68076;SDS011;54866;53.458;14.540;2023-03-20T21:22:12;13.80;;;8.80;;
68076;SDS011;54866;53.458;14.540;2023-03-20T21:24:43;12.40;;;8.30;;
68076;SDS011;54866;53.458;14.540;2023-03-20T21:27:13;14.60;;;8.70;;
68076;SDS011;54866;53.458;14.540;2023-03-20T21:29:44;12.50;;;8.70;;
68076;SDS011;54866;53.458;14.540;2023-03-20T21:32:16;13.80;;;9.80;;
68076;SDS011;54866;53.458;14.540;2023-03-20T21:34:47;18.70;;;8.90;;
68076;SDS011;54866;53.458;14.540;2023-03-20T21:37:18;15.40;;;9.30;;
68076;SDS011;54866;53.458;14.540;2023-03-20T21:39:49;14.30;;;9.50;;
68076;SDS011;54866;53.458;14.540;2023-03-20T21:42:28;13.60;;;10.20;;
68076;SDS011;54866;53.458;14.540;2023-03-20T21:45:05;16.40;;;10.40;;
68076;SDS011;54866;53.458;14.540;2023-03-20T21:47:37;17.70;;;10.60;;
68076;SDS011;54866;53.458;14.540;2023-03-20T21:50:08;15.90;;;10.30;;
68076;SDS011;54866;53.458;14.540;2023-03-20T21:52:42;17.30;;;10.30;;
68076;SDS011;54866;53.458;14.540;2023-03-20T21:55:13;16.90;;;10.30;;
68076;SDS011;54866;53.458;14.540;2023-03-20T22:00:17;16.40;;;11.50;;
68076;SDS011;54866;53.458;14.540;2023-03-20T22:02:47;14.90;;;10.40;;
68076;SDS011;54866;53.458;14.540;2023-03-20T22:05:17;16.10;;;11.00;;
68076;SDS011;54866;53.458;14.540;2023-03-20T22:07:47;19.00;;;10.60;;
68076;SDS011;54866;53.458;14.540;2023-03-20T22:10:19;17.30;;;11.20;;
68076;SDS011;54866;53.458;14.540;2023-03-20T22:12:49;19.40;;;12.40;;
68076;SDS011;54866;53.458;14.540;2023-03-20T22:15:19;20.10;;;12.10;;
68076;SDS011;54866;53.458;14.540;2023-03-20T22:17:50;20.20;;;12.50;;
68076;SDS011;54866;53.458;14.540;2023-03-20T22:20:24;21.90;;;11.90;;
68076;SDS011;54866;53.458;14.540;2023-03-20T22:23:02;17.70;;;12.00;;
68076;SDS011;54866;53.458;14.540;2023-03-20T22:25:33;19.30;;;13.20;;
68076;SDS011;54866;53.458;14.540;2023-03-20T22:28:04;17.40;;;11.00;;
68076;SDS011;54866;53.458;14.540;2023-03-20T22:30:34;17.60;;;10.60;;
68076;SDS011;54866;53.458;14.540;2023-03-20T22:33:07;19.70;;;12.70;;
68076;SDS011;54866;53.458;14.540;2023-03-20T22:35:39;18.20;;;12.10;;
68076;SDS011;54866;53.458;14.540;2023-03-20T22:38:16;19.80;;;11.60;;
68076;SDS011;54866;53.458;14.540;2023-03-20T22:40:49;21.30;;;12.50;;
68076;SDS011;54866;53.458;14.540;2023-03-20T22:43:21;20.70;;;12.50;;